createdAt,value
2022-12-11T00:02:03.065Z,89942.59
2022-12-11T00:04:29.356Z,89940.31
2022-12-11T00:06:55.763Z,89943.50
2022-12-11T00:09:22.264Z,89935.53
2022-12-11T00:11:48.595Z,89930.25
2022-12-11T00:14:14.882Z,89936.47
2022-12-11T00:16:41.308Z,89930.91
2022-12-11T00:19:07.782Z,89941.91
2022-12-11T00:21:34.097Z,89936.84
2022-12-11T00:24:00.373Z,89943.16
2022-12-11T00:26:26.690Z,89957.63
2022-12-11T00:28:53.717Z,89955.84
2022-12-11T00:31:20.103Z,89959.00
2022-12-11T00:33:48.934Z,89956.53
2022-12-11T00:36:16.080Z,89964.91
2022-12-11T00:38:42.955Z,89955.50
2022-12-11T00:41:09.252Z,89957.72
2022-12-11T00:43:35.562Z,89942.84
2022-12-11T00:46:01.949Z,89947.00
2022-12-11T00:48:28.236Z,89957.16
2022-12-11T00:50:54.516Z,89951.94
2022-12-11T00:53:20.910Z,89956.47
2022-12-11T00:55:47.211Z,89957.19
2022-12-11T00:58:13.635Z,89961.31
2022-12-11T01:00:40.534Z,89964.66
2022-12-11T01:03:06.911Z,89965.00
2022-12-11T01:05:33.213Z,89965.16
2022-12-11T01:07:59.545Z,89950.91
2022-12-11T01:10:26.350Z,89962.41
2022-12-11T01:13:12.936Z,89961.38
2022-12-11T01:15:41.771Z,89959.09
2022-12-11T01:18:08.442Z,89958.94
2022-12-11T01:20:34.763Z,89960.13
2022-12-11T01:23:01.040Z,89967.94
2022-12-11T01:25:27.710Z,89967.00
2022-12-11T01:27:54.245Z,89965.63
2022-12-11T01:30:21.024Z,89965.25
2022-12-11T01:32:47.289Z,89968.63
2022-12-11T01:35:13.672Z,89982.91
2022-12-11T01:37:39.990Z,89972.97
2022-12-11T01:40:06.695Z,89979.53
2022-12-11T01:42:32.960Z,89983.91
2022-12-11T01:45:18.020Z,89985.31
2022-12-11T01:47:44.321Z,89977.69
2022-12-11T01:50:10.604Z,89978.19
2022-12-11T01:52:36.894Z,89980.25
2022-12-11T01:55:03.160Z,89980.09
2022-12-11T01:57:29.413Z,89983.94
2022-12-11T01:59:55.700Z,89981.50
2022-12-11T02:02:26.587Z,89995.75
2022-12-11T02:04:52.921Z,89988.97
2022-12-11T02:07:19.240Z,89982.75
2022-12-11T02:09:46.067Z,89985.72
2022-12-11T02:12:15.431Z,89991.72
2022-12-11T02:14:47.754Z,89992.44
2022-12-11T02:17:21.987Z,89993.75
2022-12-11T02:20:14.526Z,90002.16
2022-12-11T02:22:47.644Z,90000.00
2022-12-11T02:25:17.202Z,89994.13
2022-12-11T02:27:47.222Z,89994.69
2022-12-11T02:30:14.288Z,89986.28
2022-12-11T02:32:45.894Z,89994.34
2022-12-11T02:35:12.518Z,89981.16
2022-12-11T02:37:39.176Z,89982.72
2022-12-11T02:40:06.509Z,89978.91
2022-12-11T02:42:32.781Z,89975.84
2022-12-11T02:44:59.256Z,89968.56
2022-12-11T02:47:25.625Z,89968.56
2022-12-11T02:49:51.973Z,89980.06
2022-12-11T02:52:18.922Z,89973.56
2022-12-11T02:54:45.210Z,89966.06
2022-12-11T02:57:12.269Z,89969.41
2022-12-11T02:59:39.269Z,89964.00
2022-12-11T03:02:05.579Z,89967.41
2022-12-11T03:04:31.880Z,89975.13
2022-12-11T03:07:00.051Z,89971.69
2022-12-11T03:09:27.035Z,89970.63
2022-12-11T03:11:53.297Z,89978.19
2022-12-11T03:14:19.593Z,89979.53
2022-12-11T03:16:48.762Z,89973.44
2022-12-11T03:19:15.030Z,89985.59
2022-12-11T03:21:47.420Z,89981.09
2022-12-11T03:24:15.164Z,89997.06
2022-12-11T03:26:45.792Z,89991.44
2022-12-11T03:29:16.880Z,89995.09
2022-12-11T03:31:43.884Z,89992.75
2022-12-11T03:34:20.242Z,89996.09
2022-12-11T03:36:46.501Z,89996.16
2022-12-11T03:39:13.768Z,89995.53
2022-12-11T03:41:40.111Z,89993.56
2022-12-11T03:44:06.744Z,89987.72
2022-12-11T03:46:34.144Z,89991.53
2022-12-11T03:49:01.745Z,89987.81
2022-12-11T03:51:28.876Z,89990.09
2022-12-11T03:53:55.145Z,89990.50
2022-12-11T03:56:21.416Z,89993.47
2022-12-11T03:58:47.733Z,89985.00
2022-12-11T04:01:14.014Z,89982.03
2022-12-11T04:03:40.457Z,89981.34
2022-12-11T04:06:06.851Z,89978.91
2022-12-11T04:08:33.126Z,89981.22
2022-12-11T04:11:18.159Z,89988.34
2022-12-11T04:13:44.445Z,89994.09
2022-12-11T04:16:10.728Z,89993.53
2022-12-11T04:18:55.411Z,89993.72
2022-12-11T04:21:40.229Z,89985.38
2022-12-11T04:24:15.891Z,89990.31
2022-12-11T04:26:45.451Z,89986.38
2022-12-11T04:29:11.740Z,89995.94
2022-12-11T04:31:38.023Z,89990.22
2022-12-11T04:34:04.312Z,89989.53
2022-12-11T04:36:30.591Z,89987.78
2022-12-11T04:38:56.856Z,89995.22
2022-12-11T04:41:23.139Z,89989.84
2022-12-11T04:43:49.429Z,89988.63
2022-12-11T04:46:19.459Z,90004.56
2022-12-11T04:48:45.813Z,89993.91
2022-12-11T04:51:12.611Z,90003.38
2022-12-11T04:53:38.898Z,90009.78
2022-12-11T04:56:05.867Z,89995.28
2022-12-11T04:58:32.157Z,89993.31
2022-12-11T05:00:58.443Z,90003.31
2022-12-11T05:03:24.732Z,89997.91
2022-12-11T05:05:51.497Z,90001.72
2022-12-11T05:08:21.005Z,89997.91
2022-12-11T05:10:57.434Z,89991.28
2022-12-11T05:13:23.761Z,89998.78
2022-12-11T05:15:50.090Z,89995.75
2022-12-11T05:18:16.761Z,90001.31
2022-12-11T05:20:43.048Z,90006.78
2022-12-11T05:23:09.313Z,90004.72
2022-12-11T05:25:35.596Z,90005.59
2022-12-11T05:28:01.870Z,90003.31
2022-12-11T05:30:28.149Z,90008.69
2022-12-11T05:32:54.430Z,90007.81
2022-12-11T05:35:20.688Z,90002.50
2022-12-11T05:37:46.968Z,90013.09
2022-12-11T05:40:13.252Z,90011.97
2022-12-11T05:42:39.560Z,90019.72
2022-12-11T05:45:06.151Z,90012.63
2022-12-11T05:47:32.432Z,90011.47
2022-12-11T05:49:58.693Z,90006.56
2022-12-11T05:52:24.987Z,90005.91
2022-12-11T05:54:51.259Z,90004.50
2022-12-11T05:57:17.750Z,90004.94
2022-12-11T05:59:44.043Z,90000.16
2022-12-11T06:02:10.390Z,90008.19
2022-12-11T06:04:36.747Z,90010.91
2022-12-11T06:07:03.372Z,90002.28
2022-12-11T06:09:29.964Z,90007.06
2022-12-11T06:11:56.241Z,90002.06
2022-12-11T06:14:22.532Z,90000.19
2022-12-11T06:16:50.015Z,89994.47
2022-12-11T06:19:18.215Z,89999.06
2022-12-11T06:21:45.032Z,90002.88
2022-12-11T06:24:11.409Z,90002.84
2022-12-11T06:26:37.699Z,90005.25
2022-12-11T06:29:08.879Z,90006.63
2022-12-11T06:31:37.285Z,90010.16
2022-12-11T06:34:03.627Z,90017.81
2022-12-11T06:36:29.899Z,90024.44
2022-12-11T06:38:56.177Z,90030.34
2022-12-11T06:41:22.484Z,90021.84
2022-12-11T06:43:48.830Z,90026.13
2022-12-11T06:46:17.690Z,90030.53
2022-12-11T06:48:44.084Z,90038.00
2022-12-11T06:51:14.435Z,90024.59
2022-12-11T06:53:40.774Z,90037.13
2022-12-11T06:56:11.275Z,90038.81
2022-12-11T06:58:37.630Z,90037.50
2022-12-11T07:01:04.221Z,90040.03
2022-12-11T07:03:30.573Z,90034.63
2022-12-11T07:06:00.581Z,90030.63
2022-12-11T07:08:27.824Z,90026.13
2022-12-11T07:10:54.126Z,90039.44
2022-12-11T07:13:20.401Z,90038.22
2022-12-11T07:15:46.680Z,90039.00
2022-12-11T07:18:12.932Z,90042.09
2022-12-11T07:20:39.229Z,90035.81
2022-12-11T07:23:05.550Z,90045.28
2022-12-11T07:25:31.845Z,90031.53
2022-12-11T07:27:58.124Z,90033.13
2022-12-11T07:30:24.400Z,90028.03
2022-12-11T07:32:50.708Z,90034.41
2022-12-11T07:35:17.021Z,90035.50
2022-12-11T07:37:44.777Z,90029.84
2022-12-11T07:40:11.231Z,90036.22
2022-12-11T07:42:41.423Z,90037.41
2022-12-11T07:45:11.103Z,90045.50
2022-12-11T07:47:37.557Z,90041.78
2022-12-11T07:50:03.880Z,90038.84
2022-12-11T07:52:30.136Z,90046.72
2022-12-11T07:54:56.416Z,90040.34
2022-12-11T07:57:22.712Z,90044.34
2022-12-11T07:59:48.977Z,90049.94
2022-12-11T08:02:15.282Z,90041.75
2022-12-11T08:04:41.622Z,90045.59
2022-12-11T08:07:07.900Z,90049.06
2022-12-11T08:09:34.209Z,90042.31
2022-12-11T08:12:00.516Z,90029.63
2022-12-11T08:14:26.833Z,90028.50
2022-12-11T08:16:53.253Z,90037.59
2022-12-11T08:19:19.561Z,90030.41
2022-12-11T08:21:45.926Z,90029.31
2022-12-11T08:24:12.255Z,90039.09
2022-12-11T08:26:38.546Z,90039.72
2022-12-11T08:29:04.880Z,90031.63
2022-12-11T08:31:31.376Z,90044.22
2022-12-11T08:33:57.746Z,90039.28
2022-12-11T08:36:24.106Z,90041.53
2022-12-11T08:38:50.502Z,90040.97
2022-12-11T08:41:17.537Z,90032.91
2022-12-11T08:43:43.843Z,90038.41
2022-12-11T08:46:10.491Z,90034.41
2022-12-11T08:48:37.059Z,90035.50
2022-12-11T08:51:04.666Z,90041.91
2022-12-11T08:53:31.129Z,90047.63
2022-12-11T08:56:01.221Z,90042.34
2022-12-11T08:58:27.476Z,90046.34
2022-12-11T09:00:53.814Z,90041.03
2022-12-11T09:03:20.177Z,90031.03
2022-12-11T09:05:46.452Z,90029.28
2022-12-11T09:08:12.765Z,90032.19
2022-12-11T09:10:39.064Z,90030.75
2022-12-11T09:13:05.361Z,90026.78
2022-12-11T09:15:31.695Z,90032.34
2022-12-11T09:17:57.985Z,90029.25
2022-12-11T09:20:24.325Z,90029.00
2022-12-11T09:22:50.593Z,90034.00
2022-12-11T09:25:16.883Z,90037.81
2022-12-11T09:27:43.197Z,90037.50
2022-12-11T09:30:09.545Z,90037.13
2022-12-11T09:32:35.852Z,90024.38
2022-12-11T09:35:02.130Z,90028.81
2022-12-11T09:37:28.700Z,90033.50
2022-12-11T09:39:54.992Z,90021.28
2022-12-11T09:42:24.191Z,90031.31
2022-12-11T09:44:52.915Z,90031.34
2022-12-11T09:47:21.032Z,90018.97
2022-12-11T09:49:47.796Z,90006.22
2022-12-11T09:52:34.299Z,90013.13
2022-12-11T09:55:01.273Z,90016.44
2022-12-11T09:57:27.500Z,90011.00
2022-12-11T10:00:04.440Z,90009.03
2022-12-11T10:02:50.996Z,90009.31
2022-12-11T10:05:17.295Z,89998.88
2022-12-11T10:07:54.795Z,90003.28
2022-12-11T10:10:27.209Z,89993.66
2022-12-11T10:12:57.253Z,89995.78
2022-12-11T10:15:33.547Z,89993.31
2022-12-11T10:18:04.643Z,89995.78
2022-12-11T10:20:35.026Z,89997.28
2022-12-11T10:23:01.311Z,89990.13
2022-12-11T10:25:29.550Z,89986.41
2022-12-11T10:27:56.026Z,89979.47
2022-12-11T10:30:28.366Z,89978.03
2022-12-11T10:33:15.593Z,89980.81
2022-12-11T10:35:51.992Z,89974.66
2022-12-11T10:38:24.700Z,89980.44
2022-12-11T10:40:52.415Z,89976.97
2022-12-11T10:43:18.789Z,89972.22
2022-12-11T10:45:52.428Z,89968.63
2022-12-11T10:48:18.691Z,89958.69
2022-12-11T10:50:45.790Z,89954.44
2022-12-11T10:53:20.005Z,89953.69
2022-12-11T10:55:46.318Z,89951.97
2022-12-11T10:58:14.312Z,89958.97
2022-12-11T11:00:40.691Z,89953.53
2022-12-11T11:03:27.292Z,89952.34
2022-12-11T11:06:06.672Z,89949.81
2022-12-11T11:08:59.090Z,89946.38
2022-12-11T11:11:36.706Z,89955.97
2022-12-11T11:14:18.797Z,89953.22
2022-12-11T11:16:45.897Z,89951.41
2022-12-11T11:19:18.807Z,89953.88
2022-12-11T11:21:49.046Z,89951.41
2022-12-11T11:24:22.537Z,89952.97
2022-12-11T11:27:12.141Z,89943.97
2022-12-11T11:29:37.646Z,89939.72
2022-12-11T11:32:14.672Z,89940.97
2022-12-11T11:34:40.936Z,89943.34
2022-12-11T11:37:15.494Z,89940.34
2022-12-11T11:39:44.977Z,89938.25
2022-12-11T11:42:18.991Z,89935.66
2022-12-11T11:44:49.028Z,89932.91
2022-12-11T11:47:17.331Z,89940.63
2022-12-11T11:49:53.479Z,89950.25
2022-12-11T11:52:28.377Z,89937.09
2022-12-11T11:55:16.215Z,89937.09
2022-12-11T11:57:57.183Z,89942.16
2022-12-11T12:00:27.505Z,89931.19
2022-12-11T12:02:59.461Z,89937.06
2022-12-11T12:05:27.348Z,89935.16
2022-12-11T12:08:12.385Z,89937.09
2022-12-11T12:10:48.360Z,89937.78
2022-12-11T12:13:47.642Z,89930.34
2022-12-11T12:16:22.961Z,89927.28
2022-12-11T12:19:11.925Z,89922.38
2022-12-11T12:21:38.899Z,89919.88
2022-12-11T12:24:24.065Z,89914.59
2022-12-11T12:26:58.514Z,89914.97
2022-12-11T12:29:33.814Z,89911.31
2022-12-11T12:32:05.442Z,89916.78
2022-12-11T12:34:31.665Z,89919.88
2022-12-11T12:37:07.327Z,89915.66
2022-12-11T12:39:37.576Z,89918.78
2022-12-11T12:42:07.877Z,89913.41
2022-12-11T12:44:37.760Z,89910.13
2022-12-11T12:47:05.244Z,89912.06
2022-12-11T12:49:40.690Z,89913.75
2022-12-11T12:52:10.343Z,89916.56
2022-12-11T12:54:36.697Z,89913.31
2022-12-11T12:57:03.058Z,89923.22
2022-12-11T12:59:29.385Z,89921.19
2022-12-11T13:01:56.939Z,89926.50
2022-12-11T13:04:55.602Z,89924.59
2022-12-11T13:07:27.007Z,89921.81
2022-12-11T13:09:56.797Z,89922.63
2022-12-11T13:12:28.887Z,89926.84
2022-12-11T13:14:58.244Z,89918.59
2022-12-11T13:17:26.182Z,89925.06
2022-12-11T13:20:03.625Z,89917.34
2022-12-11T13:22:29.892Z,89917.09
2022-12-11T13:25:01.479Z,89912.91
2022-12-11T13:27:49.204Z,89921.13
2022-12-11T13:30:15.462Z,89919.97
2022-12-11T13:32:55.475Z,89919.97
2022-12-11T13:35:21.771Z,89922.94
2022-12-11T13:37:49.578Z,89925.16
2022-12-11T13:40:17.396Z,89927.44
2022-12-11T13:42:54.501Z,89926.16
2022-12-11T13:45:33.250Z,89922.16
2022-12-11T13:47:59.623Z,89925.94
2022-12-11T13:50:26.795Z,89921.75
2022-12-11T13:52:53.908Z,89925.44
2022-12-11T13:55:26.337Z,89933.44
2022-12-11T13:57:52.612Z,89933.56
2022-12-11T14:00:30.044Z,89932.47
2022-12-11T14:02:56.415Z,89941.94
2022-12-11T14:05:22.725Z,89931.94
2022-12-11T14:07:49.674Z,89942.66
2022-12-11T14:10:17.264Z,89946.56
2022-12-11T14:12:53.813Z,89949.03
2022-12-11T14:15:20.171Z,89942.28
2022-12-11T14:17:51.506Z,89941.06
2022-12-11T14:20:25.359Z,89936.00
2022-12-11T14:22:51.744Z,89939.47
2022-12-11T14:25:20.114Z,89938.09
2022-12-11T14:27:47.373Z,89951.13
2022-12-11T14:30:14.422Z,89943.66
2022-12-11T14:32:43.996Z,89942.06
2022-12-11T14:35:14.109Z,89946.34
2022-12-11T14:37:40.393Z,89949.44
2022-12-11T14:40:08.218Z,89946.75
2022-12-11T14:42:38.152Z,89937.78
2022-12-11T14:45:07.298Z,89946.16
2022-12-11T14:47:34.852Z,89947.34
2022-12-11T14:50:05.927Z,89941.66
2022-12-11T14:52:39.200Z,89948.31
2022-12-11T14:55:06.555Z,89950.34
2022-12-11T14:57:33.023Z,89944.53
2022-12-11T14:59:59.305Z,89947.41
2022-12-11T15:02:25.659Z,89945.91
2022-12-11T15:05:10.800Z,89944.84
2022-12-11T15:07:37.277Z,89946.94
2022-12-11T15:10:04.043Z,89953.91
2022-12-11T15:12:30.382Z,89949.44
2022-12-11T15:15:00.820Z,89944.44
2022-12-11T15:17:27.156Z,89954.69
2022-12-11T15:19:54.558Z,89945.31
2022-12-11T15:22:23.628Z,89945.25
2022-12-11T15:24:50.361Z,89945.19
2022-12-11T15:27:22.785Z,89946.03
2022-12-11T15:29:49.056Z,89941.13
2022-12-11T15:32:18.894Z,89942.94
2022-12-11T15:34:51.290Z,89938.09
2022-12-11T15:37:17.535Z,89940.56
2022-12-11T15:39:43.819Z,89949.06
2022-12-11T15:42:10.108Z,89939.59
2022-12-11T15:44:36.382Z,89937.31
2022-12-11T15:47:11.285Z,89936.13
2022-12-11T15:49:37.700Z,89939.44
2022-12-11T15:52:04.071Z,89936.22
2022-12-11T15:54:30.500Z,89939.78
2022-12-11T15:56:56.961Z,89930.34
2022-12-11T15:59:23.230Z,89936.66
2022-12-11T16:01:49.529Z,89932.94
2022-12-11T16:04:15.840Z,89944.34
2022-12-11T16:06:45.225Z,89938.28
2022-12-11T16:09:11.551Z,89951.75
2022-12-11T16:11:37.876Z,89953.16
2022-12-11T16:14:04.458Z,89949.66
2022-12-11T16:16:30.992Z,89951.38
2022-12-11T16:18:57.254Z,89956.47
2022-12-11T16:21:23.520Z,89958.22
2022-12-11T16:23:49.799Z,89953.75
2022-12-11T16:26:16.079Z,89957.19
2022-12-11T16:28:42.472Z,89964.78
2022-12-11T16:31:12.484Z,89961.00
2022-12-11T16:33:39.035Z,89964.91
2022-12-11T16:36:15.047Z,89963.78
2022-12-11T16:38:41.770Z,89968.78
2022-12-11T16:41:08.039Z,89963.91
2022-12-11T16:43:34.320Z,89963.47
2022-12-11T16:46:00.739Z,89969.03
2022-12-11T16:48:27.085Z,89977.72
2022-12-11T16:50:54.438Z,89969.34
2022-12-11T16:53:21.369Z,89961.09
2022-12-11T16:55:47.666Z,89968.66
2022-12-11T16:58:19.966Z,89967.94
2022-12-11T17:00:46.816Z,89975.00
2022-12-11T17:03:13.290Z,89970.09
2022-12-11T17:05:39.904Z,89965.84
2022-12-11T17:08:06.585Z,89971.72
2022-12-11T17:10:32.927Z,89975.00
2022-12-11T17:12:59.197Z,89972.91
2022-12-11T17:15:25.490Z,89976.13
2022-12-11T17:17:51.747Z,89973.53
2022-12-11T17:20:18.261Z,89985.13
2022-12-11T17:22:45.890Z,89993.56
2022-12-11T17:25:12.429Z,89991.19
2022-12-11T17:27:38.964Z,89993.00
2022-12-11T17:30:05.481Z,89995.31
2022-12-11T17:32:31.752Z,89994.47
2022-12-11T17:34:58.034Z,89999.59
2022-12-11T17:37:24.324Z,90005.13
2022-12-11T17:39:50.633Z,90012.25
2022-12-11T17:42:16.915Z,90006.16
2022-12-11T17:44:45.326Z,90010.44
2022-12-11T17:47:12.041Z,90008.75
2022-12-11T17:49:41.427Z,90011.28
2022-12-11T17:52:07.781Z,90014.34
2022-12-11T17:54:34.844Z,90010.94
2022-12-11T17:57:01.553Z,90015.13
2022-12-11T17:59:27.826Z,90009.72
2022-12-11T18:01:54.187Z,90019.34
2022-12-11T18:04:20.482Z,90025.91
2022-12-11T18:06:46.764Z,90020.78
2022-12-11T18:09:13.029Z,90023.75
2022-12-11T18:11:39.284Z,90030.81
2022-12-11T18:14:05.663Z,90035.06
2022-12-11T18:16:33.079Z,90026.97
2022-12-11T18:18:59.427Z,90033.47
2022-12-11T18:21:26.943Z,90030.53
2022-12-11T18:23:53.236Z,90038.16
2022-12-11T18:26:19.759Z,90032.56
2022-12-11T18:28:46.523Z,90035.00
2022-12-11T18:31:13.444Z,90028.38
2022-12-11T18:33:40.136Z,90037.47
2022-12-11T18:36:06.643Z,90041.38
2022-12-11T18:38:33.482Z,90046.97
2022-12-11T18:41:03.822Z,90045.97
2022-12-11T18:43:30.104Z,90052.16
2022-12-11T18:45:56.519Z,90045.78
2022-12-11T18:48:22.783Z,90047.19
2022-12-11T18:50:49.355Z,90053.88
2022-12-11T18:53:16.029Z,90054.66
2022-12-11T18:55:46.148Z,90050.41
2022-12-11T18:58:12.743Z,90049.63
2022-12-11T19:00:39.864Z,90054.81
2022-12-11T19:03:06.737Z,90049.72
2022-12-11T19:05:33.664Z,90049.09
2022-12-11T19:08:00.201Z,90048.72
2022-12-11T19:10:26.703Z,90053.66
2022-12-11T19:12:53.001Z,90052.22
2022-12-11T19:15:23.534Z,90054.91
2022-12-11T19:17:50.385Z,90063.69
2022-12-11T19:20:47.645Z,90066.38
2022-12-11T19:23:03.078Z,90064.97
2022-12-11T19:25:29.361Z,90060.16
2022-12-11T19:27:56.934Z,90069.81
2022-12-11T19:30:23.561Z,90058.63
2022-12-11T19:32:49.846Z,90065.84
2022-12-11T19:35:17.547Z,90065.69
2022-12-11T19:37:43.810Z,90064.44
2022-12-11T19:40:10.339Z,90066.53
2022-12-11T19:42:36.652Z,90060.88
2022-12-11T19:45:02.969Z,90063.13
2022-12-11T19:47:29.284Z,90063.03
2022-12-11T19:49:56.490Z,90056.75
2022-12-11T19:52:22.809Z,90061.88
2022-12-11T19:54:49.086Z,90067.41
2022-12-11T19:57:15.371Z,90066.38
2022-12-11T19:59:41.672Z,90062.72
2022-12-11T20:02:09.034Z,90064.22
2022-12-11T20:04:35.365Z,90070.16
2022-12-11T20:07:01.755Z,90070.03
2022-12-11T20:09:28.192Z,90067.91
2022-12-11T20:11:54.452Z,90070.00
2022-12-11T20:14:24.094Z,90070.47
2022-12-11T20:19:36.686Z,90070.31
2022-12-11T20:22:02.951Z,90078.31
2022-12-11T20:24:29.552Z,90077.25
2022-12-11T20:26:57.097Z,90068.84
2022-12-11T20:29:23.627Z,90073.88
2022-12-11T20:31:50.614Z,90066.78
2022-12-11T20:34:16.936Z,90071.34
2022-12-11T20:36:43.350Z,90073.59
2022-12-11T20:39:10.049Z,90066.78
2022-12-11T20:41:36.332Z,90068.19
2022-12-11T20:44:02.612Z,90066.22
2022-12-11T20:46:28.900Z,90070.94
2022-12-11T20:48:55.671Z,90077.16
2022-12-11T20:51:25.708Z,90075.47
2022-12-11T20:53:58.071Z,90068.66
2022-12-11T20:56:24.672Z,90062.69
2022-12-11T20:58:50.952Z,90060.31
2022-12-11T21:01:17.840Z,90070.94
2022-12-11T21:03:44.241Z,90069.75
2022-12-11T21:06:22.908Z,90077.19
2022-12-11T21:08:49.177Z,90069.53
2022-12-11T21:11:15.454Z,90072.25
2022-12-11T21:13:41.834Z,90073.78
2022-12-11T21:16:08.460Z,90074.97
2022-12-11T21:18:34.789Z,90074.78
2022-12-11T21:21:01.061Z,90075.50
2022-12-11T21:23:27.336Z,90087.28
2022-12-11T21:25:53.620Z,90073.00
2022-12-11T21:28:20.031Z,90085.06
2022-12-11T21:30:46.398Z,90084.19
2022-12-11T21:33:12.665Z,90074.97
2022-12-11T21:35:38.939Z,90083.38
2022-12-11T21:38:05.230Z,90083.47
2022-12-11T21:40:31.516Z,90087.19
2022-12-11T21:42:57.804Z,90092.97
2022-12-11T21:45:59.912Z,90098.06
2022-12-11T21:48:10.998Z,90084.75
2022-12-11T21:50:37.284Z,90094.69
2022-12-11T21:53:03.627Z,90092.69
2022-12-11T21:55:29.896Z,90090.59
2022-12-11T21:57:56.161Z,90085.03
2022-12-11T22:00:22.678Z,90083.63
2022-12-11T22:02:49.028Z,90083.94
2022-12-11T22:05:15.335Z,90085.75
2022-12-11T22:07:41.610Z,90084.09
2022-12-11T22:10:08.159Z,90084.09
2022-12-11T22:12:34.510Z,90087.09
2022-12-11T22:15:00.875Z,90086.91
2022-12-11T22:17:27.179Z,90081.63
2022-12-11T22:19:53.563Z,90081.16
2022-12-11T22:22:19.841Z,90088.00
2022-12-11T22:24:46.268Z,90090.81
2022-12-11T22:27:12.547Z,90088.41
2022-12-11T22:29:38.816Z,90096.25
2022-12-11T22:32:05.092Z,90085.03
2022-12-11T22:34:31.429Z,90096.22
2022-12-11T22:36:57.696Z,90095.69
2022-12-11T22:39:24.766Z,90089.41
2022-12-11T22:41:51.110Z,90097.91
2022-12-11T22:44:18.073Z,90098.63
2022-12-11T22:46:49.620Z,90101.56
2022-12-11T22:49:16.710Z,90097.78
2022-12-11T22:51:42.989Z,90098.75
2022-12-11T22:54:09.393Z,90095.50
2022-12-11T22:56:35.676Z,90102.09
2022-12-11T22:59:01.951Z,90092.50
2022-12-11T23:01:28.336Z,90104.88
2022-12-11T23:03:54.626Z,90101.38
2022-12-11T23:06:21.679Z,90099.63
2022-12-11T23:08:48.011Z,90094.28
2022-12-11T23:11:14.288Z,90093.59
2022-12-11T23:13:40.596Z,90089.44
2022-12-11T23:16:06.875Z,90087.66
2022-12-11T23:18:33.147Z,90093.44
2022-12-11T23:20:59.450Z,90094.75
2022-12-11T23:23:25.727Z,90096.66
2022-12-11T23:25:51.993Z,90092.88
2022-12-11T23:28:18.523Z,90089.56
2022-12-11T23:30:44.859Z,90099.47
2022-12-11T23:33:11.182Z,90109.91
2022-12-11T23:35:37.443Z,90111.72
2022-12-11T23:38:03.721Z,90102.09
2022-12-11T23:40:30.032Z,90106.78
2022-12-11T23:42:56.325Z,90108.75
2022-12-11T23:45:22.711Z,90104.63
2022-12-11T23:47:49.044Z,90101.03
2022-12-11T23:50:15.329Z,90099.75
2022-12-11T23:52:41.591Z,90106.69
2022-12-11T23:55:08.095Z,90102.06
2022-12-11T23:57:34.508Z,90108.38
